Time;durP1;ratioP1;P1;durP2;ratioP2;P2;SDS_P1;SDS_P2;PMS_P1;PMS_P2;Temp;Humidity;BMP_temperature;BMP_pressure;BME280_temperature;BME280_humidity;BME280_pressure;Samples;Min_cycle;Max_cycle;Signal;HPM_P1;HPM_P2
2023/06/21 00:01:38;;;;;;;18.77;16.88;;;20.10;99.90;;;;;;4975233;28;20117;-49
2023/06/21 00:04:08;;;;;;;19.58;17.50;;;19.80;99.90;;;;;;4995458;28;20042;-48
2023/06/21 00:06:36;;;;;;;19.20;17.20;;;20.00;99.90;;;;;;5012605;28;20038;-49
2023/06/21 00:09:03;;;;;;;20.00;17.70;;;19.80;99.90;;;;;;5011823;28;20528;-49
2023/06/21 00:11:32;;;;;;;20.40;18.20;;;20.00;99.90;;;;;;5000496;28;20061;-46
2023/06/21 00:13:58;;;;;;;21.20;18.83;;;19.80;99.90;;;;;;4975440;28;20046;-44
2023/06/21 00:16:24;;;;;;;20.73;18.60;;;19.90;99.90;;;;;;4992472;28;20069;-50
2023/06/21 00:18:49;;;;;;;20.25;18.10;;;19.90;99.90;;;;;;4994457;28;20046;-47
2023/06/21 00:21:15;;;;;;;21.13;18.60;;;19.90;99.90;;;;;;4996023;28;20038;-46
2023/06/21 00:23:44;;;;;;;22.20;19.88;;;19.80;99.90;;;;;;5004984;28;20491;-48
2023/06/21 00:26:09;;;;;;;23.00;20.23;;;19.60;99.90;;;;;;5011839;28;20041;-49
2023/06/21 00:28:35;;;;;;;22.38;20.13;;;19.60;99.90;;;;;;5012086;28;20527;-49
2023/06/21 00:31:01;;;;;;;24.00;20.40;;;19.80;99.90;;;;;;4994406;28;20125;-49
2023/06/21 00:33:27;;;;;;;22.80;20.33;;;19.70;99.90;;;;;;4994388;28;20038;-50
2023/06/21 00:35:52;;;;;;;23.33;20.90;;;19.50;99.90;;;;;;4992226;28;20034;-48
2023/06/21 00:38:18;;;;;;;24.63;21.90;;;19.50;99.90;;;;;;4992029;28;20508;-47
2023/06/21 00:40:45;;;;;;;23.75;21.00;;;19.40;99.90;;;;;;4992088;28;20062;-46
2023/06/21 00:43:11;;;;;;;25.90;22.65;;;19.40;99.90;;;;;;4992193;28;20461;-47
2023/06/21 00:45:45;;;;;;;25.08;22.55;;;19.40;99.90;;;;;;4992217;28;20073;-44
2023/06/21 00:48:11;;;;;;;23.50;21.08;;;19.50;99.90;;;;;;4991951;28;20432;-47
2023/06/21 00:50:40;;;;;;;29.17;23.75;;;19.30;99.90;;;;;;4979430;28;20405;-48
2023/06/21 00:53:06;;;;;;;26.17;22.05;;;19.30;99.90;;;;;;5011068;28;20132;-50
2023/06/21 00:55:33;;;;;;;27.45;24.75;;;19.40;99.90;;;;;;5011539;28;20548;-45
2023/06/21 00:57:58;;;;;;;27.33;24.30;;;19.20;99.90;;;;;;5011407;28;20072;-49
2023/06/21 01:00:25;;;;;;;30.25;25.05;;;19.40;99.90;;;;;;5011325;28;20038;-47
2023/06/21 01:02:54;;;;;;;29.25;25.92;;;19.20;99.90;;;;;;5011809;28;20065;-45
2023/06/21 01:05:22;;;;;;;29.50;26.45;;;19.40;99.90;;;;;;5011352;28;20366;-51
2023/06/21 01:08:20;;;;;;;30.17;27.02;;;19.20;99.90;;;;;;5008303;28;20045;-49
2023/06/21 01:11:23;;;;;;;30.52;27.20;;;19.40;99.90;;;;;;4995743;28;20092;-48
2023/06/21 01:14:39;;;;;;;32.38;27.80;;;19.40;99.90;;;;;;5011147;28;20057;-49
2023/06/21 01:17:07;;;;;;;30.38;27.08;;;19.20;99.90;;;;;;4941742;28;20046;-49
2023/06/21 01:19:39;;;;;;;34.78;28.60;;;19.20;99.90;;;;;;5004008;28;20081;-51
2023/06/21 01:22:20;;;;;;;31.77;27.90;;;19.20;99.90;;;;;;4997516;28;20552;-49
2023/06/21 01:25:30;;;;;;;31.00;26.40;;;19.20;99.90;;;;;;4991828;28;20038;-50
2023/06/21 01:28:26;;;;;;;34.10;29.02;;;19.40;99.90;;;;;;4966469;28;20053;-46
2023/06/21 01:30:55;;;;;;;35.20;29.75;;;19.40;99.90;;;;;;4991612;28;20050;-49
2023/06/21 01:33:23;;;;;;;35.63;30.73;;;19.20;99.90;;;;;;4991551;28;20048;-45
2023/06/21 01:35:52;;;;;;;37.00;30.67;;;19.10;99.90;;;;;;4991114;28;20042;-51
2023/06/21 01:38:19;;;;;;;36.22;31.75;;;19.50;99.90;;;;;;4990851;28;20042;-48
2023/06/21 01:40:45;;;;;;;37.88;33.05;;;19.30;99.90;;;;;;5008983;28;20108;-48
2023/06/21 01:43:11;;;;;;;37.75;31.42;;;19.30;99.90;;;;;;4995285;28;20039;-46
2023/06/21 01:45:37;;;;;;;37.35;33.08;;;19.30;99.90;;;;;;4991168;28;20070;-48
2023/06/21 01:48:04;;;;;;;42.05;36.58;;;19.30;99.90;;;;;;4991441;28;20035;-51
2023/06/21 01:50:31;;;;;;;40.97;34.42;;;19.10;99.90;;;;;;4991458;28;20042;-46
2023/06/21 01:52:58;;;;;;;43.20;37.28;;;19.30;99.90;;;;;;4990765;28;20054;-49
2023/06/21 01:55:25;;;;;;;43.78;36.55;;;19.20;99.90;;;;;;4991421;28;20046;-48
2023/06/21 01:57:52;;;;;;;46.63;39.55;;;19.30;99.90;;;;;;4990936;28;20104;-48
2023/06/21 02:00:21;;;;;;;46.30;37.58;;;19.30;99.90;;;;;;4991008;28;20038;-50
2023/06/21 02:03:03;;;;;;;47.55;39.25;;;19.20;99.90;;;;;;4992955;28;20038;-50
2023/06/21 02:05:31;;;;;;;49.70;41.88;;;19.20;99.90;;;;;;4999447;28;20042;-47
2023/06/21 02:07:58;;;;;;;47.75;40.88;;;19.50;99.90;;;;;;4995249;28;20401;-49
2023/06/21 02:10:25;;;;;;;48.67;41.22;;;19.30;99.90;;;;;;4994515;28;20142;-49
2023/06/21 02:12:54;;;;;;;49.85;41.30;;;19.30;99.90;;;;;;4995060;28;20174;-44
2023/06/21 02:15:20;;;;;;;50.60;41.15;;;19.40;99.90;;;;;;4994928;28;20501;-46
2023/06/21 02:17:49;;;;;;;45.92;40.05;;;19.40;99.90;;;;;;4982577;28;20081;-48
2023/06/21 02:20:16;;;;;;;51.90;41.80;;;19.20;99.90;;;;;;5011529;28;20408;-48
2023/06/21 02:22:43;;;;;;;48.22;39.72;;;19.40;99.90;;;;;;5014197;28;20081;-47
2023/06/21 02:25:10;;;;;;;47.95;39.70;;;19.10;99.90;;;;;;4990442;28;20047;-47
2023/06/21 02:27:37;;;;;;;53.42;41.33;;;19.30;99.90;;;;;;4994336;28;20113;-47
2023/06/21 02:30:04;;;;;;;51.55;41.75;;;19.10;99.90;;;;;;5000859;28;20077;-50
2023/06/21 02:32:29;;;;;;;54.35;42.90;;;19.20;99.90;;;;;;5014256;28;20084;-51
2023/06/21 02:34:55;;;;;;;45.83;40.75;;;19.10;99.90;;;;;;5014145;28;20077;-48
2023/06/21 02:37:20;;;;;;;52.92;42.45;;;18.90;99.90;;;;;;5013780;28;20038;-49
2023/06/21 02:39:46;;;;;;;54.15;45.03;;;18.90;99.90;;;;;;4994234;28;20092;-47
2023/06/21 02:42:12;;;;;;;53.42;44.08;;;19.10;99.90;;;;;;4996412;28;20047;-50
2023/06/21 02:44:37;;;;;;;51.38;43.33;;;19.00;99.90;;;;;;5004866;28;20121;-49
2023/06/21 02:47:03;;;;;;;56.20;44.92;;;18.80;99.90;;;;;;4994457;28;20038;-44
2023/06/21 02:49:30;;;;;;;55.50;45.08;;;18.80;99.90;;;;;;4994631;28;20045;-46
2023/06/21 02:51:55;;;;;;;52.38;43.20;;;18.90;99.90;;;;;;4976800;28;20049;-47
2023/06/21 02:54:21;;;;;;;57.63;45.35;;;18.80;99.90;;;;;;5013959;28;20042;-48
2023/06/21 02:56:47;;;;;;;60.47;46.55;;;19.00;99.90;;;;;;5009425;28;20053;-52
2023/06/21 02:59:13;;;;;;;55.13;45.90;;;19.00;99.90;;;;;;5013508;28;20481;-50
2023/06/21 03:01:38;;;;;;;54.78;44.15;;;18.90;99.90;;;;;;5013766;28;20128;-48
2023/06/21 03:04:04;;;;;;;58.83;46.40;;;18.70;99.90;;;;;;5005295;28;20048;-47
2023/06/21 03:06:33;;;;;;;61.90;48.00;;;18.90;99.90;;;;;;4995821;28;20061;-51
2023/06/21 03:08:59;;;;;;;58.15;47.03;;;18.80;99.90;;;;;;4993755;28;20042;-48
2023/06/21 03:11:25;;;;;;;56.22;46.15;;;18.90;99.90;;;;;;4993535;28;20034;-49
2023/06/21 03:13:51;;;;;;;66.93;48.95;;;18.70;99.90;;;;;;5009880;28;20049;-45
2023/06/21 03:16:17;;;;;;;64.10;48.40;;;18.80;99.90;;;;;;5012629;28;20046;-50
2023/06/21 03:18:42;;;;;;;62.17;49.00;;;18.90;99.90;;;;;;5012971;28;20465;-46
2023/06/21 03:21:08;;;;;;;65.75;49.42;;;18.70;99.90;;;;;;5012978;28;20100;-49
2023/06/21 03:23:35;;;;;;;59.97;47.45;;;18.70;99.90;;;;;;5013494;28;20068;-48
2023/06/21 03:26:01;;;;;;;66.63;51.45;;;18.70;99.90;;;;;;5012831;28;20801;-46
2023/06/21 03:28:27;;;;;;;70.60;52.17;;;18.60;99.90;;;;;;5013012;28;20030;-49
2023/06/21 03:30:53;;;;;;;64.07;52.45;;;18.90;99.90;;;;;;5013279;28;20045;-47
2023/06/21 03:33:18;;;;;;;61.25;49.33;;;18.70;99.90;;;;;;4978458;28;20035;-52
2023/06/21 03:38:55;;;;;;;66.75;52.78;;;18.60;99.90;;;;;;4361958;23;20069;-48
2023/06/21 03:41:21;;;;;;;67.63;53.55;;;18.80;99.90;;;;;;4982104;23;20438;-46
2023/06/21 03:43:47;;;;;;;69.28;54.15;;;18.80;99.90;;;;;;4958172;28;20043;-49
2023/06/21 03:46:12;;;;;;;66.43;53.00;;;18.70;99.90;;;;;;4973589;28;20191;-46
2023/06/21 03:48:38;;;;;;;69.65;54.47;;;18.50;99.90;;;;;;4954635;28;20035;-47
2023/06/21 03:51:04;;;;;;;74.60;55.10;;;18.50;99.90;;;;;;4966855;28;20046;-47
2023/06/21 03:53:29;;;;;;;72.43;54.42;;;18.70;99.90;;;;;;4968969;28;20157;-50
2023/06/21 03:55:55;;;;;;;72.53;55.35;;;18.50;99.90;;;;;;4954505;28;20046;-46
2023/06/21 03:58:21;;;;;;;74.18;56.63;;;18.60;99.90;;;;;;4960410;28;20050;-48
2023/06/21 04:00:47;;;;;;;70.78;55.20;;;18.50;99.90;;;;;;4973712;28;20159;-48
2023/06/21 04:03:12;;;;;;;71.38;55.47;;;18.50;99.90;;;;;;4973769;28;20042;-47
2023/06/21 04:05:38;;;;;;;65.50;53.58;;;18.50;99.90;;;;;;4937442;28;20486;-47
2023/06/21 04:08:04;;;;;;;85.65;60.30;;;18.60;99.90;;;;;;4970609;28;20031;-50
2023/06/21 04:10:29;;;;;;;80.28;58.83;;;18.50;99.90;;;;;;4973377;28;20046;-48
2023/06/21 04:12:55;;;;;;;86.22;58.63;;;18.50;99.90;;;;;;4958618;28;20039;-47
2023/06/21 04:15:21;;;;;;;82.72;59.15;;;18.70;99.90;;;;;;4954202;28;20126;-48
2023/06/21 04:17:49;;;;;;;88.72;61.60;;;18.50;99.90;;;;;;4954374;28;20389;-50
2023/06/21 04:20:15;;;;;;;91.55;62.60;;;18.50;99.90;;;;;;4954008;28;20498;-50
2023/06/21 04:22:42;;;;;;;86.97;61.55;;;18.70;99.90;;;;;;4954030;28;20047;-47
2023/06/21 04:25:11;;;;;;;87.15;61.05;;;18.50;99.90;;;;;;4953948;28;20130;-48
2023/06/21 04:27:40;;;;;;;88.75;61.28;;;18.70;99.90;;;;;;4953037;28;20031;-49
2023/06/21 04:30:09;;;;;;;76.45;57.70;;;18.50;99.90;;;;;;4953962;28;20046;-48
2023/06/21 04:32:35;;;;;;;82.85;60.63;;;18.50;99.90;;;;;;4937110;28;20114;-50
2023/06/21 04:35:01;;;;;;;78.38;59.67;;;18.80;99.90;;;;;;4953361;28;20122;-52
2023/06/21 04:37:28;;;;;;;91.65;62.15;;;18.60;99.90;;;;;;4953730;28;20043;-46
2023/06/21 04:39:54;;;;;;;87.20;61.97;;;18.70;99.90;;;;;;4936339;28;20047;-46
2023/06/21 04:42:20;;;;;;;76.63;58.97;;;18.90;99.90;;;;;;4953664;28;20050;-47
2023/06/21 04:44:49;;;;;;;85.97;60.05;;;18.60;99.90;;;;;;4953777;28;20034;-47
2023/06/21 04:47:16;;;;;;;78.13;59.17;;;18.90;99.90;;;;;;4936413;28;20541;-50
2023/06/21 04:49:42;;;;;;;80.53;57.60;;;18.90;99.90;;;;;;4953283;28;20031;-46
2023/06/21 04:52:09;;;;;;;78.07;57.90;;;19.00;99.90;;;;;;4953693;28;20043;-48
2023/06/21 04:54:36;;;;;;;75.85;55.80;;;19.00;99.90;;;;;;4960606;28;20544;-47
2023/06/21 04:57:07;;;;;;;78.25;57.63;;;19.10;99.90;;;;;;4973032;28;20081;-52
2023/06/21 04:59:33;;;;;;;74.85;53.42;;;19.10;99.90;;;;;;4970325;28;20134;-51
2023/06/21 05:01:58;;;;;;;74.38;54.33;;;19.10;99.90;;;;;;4972387;28;20085;-49
2023/06/21 05:04:24;;;;;;;73.38;54.45;;;19.10;99.90;;;;;;4937178;28;20506;-46
2023/06/21 05:06:50;;;;;;;77.60;54.72;;;19.10;99.90;;;;;;4950038;28;20075;-47
2023/06/21 05:09:15;;;;;;;79.28;55.40;;;19.10;99.90;;;;;;4951175;28;20035;-47
2023/06/21 05:11:41;;;;;;;80.97;56.28;;;19.20;99.90;;;;;;4952635;28;20509;-51
2023/06/21 05:14:07;;;;;;;68.75;51.55;;;19.00;99.90;;;;;;4952196;28;20466;-47
2023/06/21 05:16:33;;;;;;;66.85;51.20;;;19.10;99.90;;;;;;4936008;28;20070;-46
2023/06/21 05:18:58;;;;;;;65.13;50.17;;;19.10;99.90;;;;;;4972076;28;20363;-49
2023/06/21 05:21:24;;;;;;;70.13;50.72;;;19.00;99.90;;;;;;4936424;28;20046;-46
2023/06/21 05:23:50;;;;;;;64.53;48.88;;;19.10;99.90;;;;;;4935527;28;20459;-49
2023/06/21 05:26:15;;;;;;;63.55;48.63;;;19.50;99.90;;;;;;4968510;28;20038;-47
2023/06/21 05:28:41;;;;;;;63.40;47.47;;;19.50;99.90;;;;;;4955844;28;20391;-49
2023/06/21 05:31:07;;;;;;;63.40;46.15;;;19.50;99.90;;;;;;4952655;28;20327;-50
2023/06/21 05:33:32;;;;;;;60.10;46.35;;;19.50;99.90;;;;;;4952748;28;20592;-51
2023/06/21 05:35:58;;;;;;;66.10;48.58;;;19.30;99.90;;;;;;4952416;28;20053;-51
2023/06/21 05:38:24;;;;;;;59.80;44.55;;;19.50;99.90;;;;;;4952600;28;20130;-46
2023/06/21 05:40:49;;;;;;;57.55;44.67;;;19.40;99.90;;;;;;4952487;28;20090;-49
2023/06/21 05:43:15;;;;;;;56.97;43.88;;;19.50;99.90;;;;;;4960416;28;20066;-47
2023/06/21 05:45:41;;;;;;;49.22;40.78;;;19.60;99.90;;;;;;4972151;28;20034;-47
2023/06/21 05:48:06;;;;;;;49.95;40.83;;;19.70;99.90;;;;;;4965599;28;20039;-49
2023/06/21 05:50:32;;;;;;;51.17;39.30;;;19.60;99.90;;;;;;4952706;28;20046;-50
2023/06/21 05:52:58;;;;;;;49.83;39.80;;;19.70;99.90;;;;;;4952741;28;20557;-47
2023/06/21 05:55:24;;;;;;;48.80;38.90;;;19.50;99.90;;;;;;4966027;28;20390;-49
2023/06/21 05:57:50;;;;;;;48.55;37.55;;;19.80;99.90;;;;;;4971939;28;20039;-46
2023/06/21 06:00:17;;;;;;;45.15;36.10;;;19.70;99.90;;;;;;4961036;28;20070;-50
2023/06/21 06:02:43;;;;;;;44.30;36.60;;;19.70;99.90;;;;;;4952210;28;20035;-47
2023/06/21 06:05:09;;;;;;;44.70;36.00;;;19.70;99.90;;;;;;4952221;28;20043;-46
2023/06/21 06:07:35;;;;;;;42.80;33.63;;;19.90;99.90;;;;;;4966626;28;20110;-47
2023/06/21 06:10:01;;;;;;;41.35;34.13;;;19.80;99.90;;;;;;4971582;28;20129;-48
2023/06/21 06:12:27;;;;;;;40.55;33.83;;;19.80;99.90;;;;;;4971560;28;20034;-46
2023/06/21 06:14:53;;;;;;;38.50;31.27;;;19.80;99.90;;;;;;4971728;28;20097;-50
2023/06/21 06:17:19;;;;;;;41.63;33.13;;;20.00;99.90;;;;;;4958998;28;20162;-46
2023/06/21 06:19:45;;;;;;;37.13;30.67;;;20.00;99.90;;;;;;4963041;28;20038;-48
2023/06/21 06:22:11;;;;;;;38.17;31.17;;;20.00;99.90;;;;;;4919523;28;20086;-48
2023/06/21 06:24:37;;;;;;;33.80;29.20;;;20.10;99.90;;;;;;4952519;28;20042;-49
2023/06/21 06:27:03;;;;;;;34.40;29.13;;;20.00;99.90;;;;;;4951963;28;20036;-50
2023/06/21 06:29:30;;;;;;;35.55;27.75;;;20.20;99.90;;;;;;4952221;28;20043;-47
2023/06/21 06:31:55;;;;;;;33.75;26.98;;;20.20;99.90;;;;;;4952119;28;20050;-47
2023/06/21 06:34:21;;;;;;;29.77;25.23;;;20.00;99.90;;;;;;4952382;28;20040;-49
2023/06/21 06:36:47;;;;;;;30.67;25.05;;;20.20;99.90;;;;;;4934420;28;20043;-50
2023/06/21 06:39:13;;;;;;;30.90;25.08;;;20.20;99.90;;;;;;4952422;28;20039;-49
2023/06/21 06:41:39;;;;;;;27.27;24.33;;;20.20;99.90;;;;;;4951811;28;20055;-48
2023/06/21 06:44:05;;;;;;;30.88;25.27;;;20.20;99.90;;;;;;4952284;28;20044;-48
2023/06/21 06:46:31;;;;;;;25.88;21.73;;;20.30;99.90;;;;;;4952115;28;20102;-50
2023/06/21 06:48:56;;;;;;;27.95;23.42;;;20.40;99.90;;;;;;4952328;28;20138;-50
2023/06/21 06:51:23;;;;;;;28.42;22.75;;;20.30;99.90;;;;;;4954932;28;20050;-49
2023/06/21 06:53:49;;;;;;;25.98;22.00;;;20.50;99.90;;;;;;4955971;28;20125;-45
2023/06/21 06:56:14;;;;;;;41.72;26.70;;;20.50;99.90;;;;;;4955304;28;20126;-49
2023/06/21 06:58:40;;;;;;;68.93;36.83;;;20.50;99.90;;;;;;4955294;28;20039;-50
2023/06/21 07:01:06;;;;;;;38.13;26.48;;;20.70;99.90;;;;;;4937719;28;20050;-48
2023/06/21 07:03:32;;;;;;;48.13;30.65;;;20.80;99.90;;;;;;4955054;28;20438;-45
2023/06/21 07:05:59;;;;;;;31.48;22.52;;;20.80;99.90;;;;;;4954877;28;20040;-48
2023/06/21 07:08:25;;;;;;;32.20;23.48;;;20.90;99.90;;;;;;4939218;28;20071;-50
2023/06/21 07:10:51;;;;;;;24.45;20.85;;;20.90;99.90;;;;;;4974080;28;20077;-49
2023/06/21 07:13:17;;;;;;;21.90;19.60;;;20.80;99.90;;;;;;4963358;28;20047;-48
2023/06/21 07:15:44;;;;;;;23.35;19.88;;;20.90;99.90;;;;;;4970526;28;20066;-51
2023/06/21 07:18:10;;;;;;;22.50;18.75;;;20.80;99.90;;;;;;4968583;28;20042;-46
2023/06/21 07:20:36;;;;;;;23.27;19.00;;;20.80;99.90;;;;;;4970435;28;20099;-49
2023/06/21 07:23:02;;;;;;;19.17;16.98;;;20.80;99.90;;;;;;4974394;28;20084;-51
2023/06/21 07:25:27;;;;;;;20.13;17.50;;;20.90;99.90;;;;;;4973994;28;20066;-45
2023/06/21 07:27:53;;;;;;;24.70;19.00;;;21.00;99.90;;;;;;4973907;28;20502;-48
2023/06/21 07:30:20;;;;;;;21.55;17.85;;;21.00;99.90;;;;;;4959542;28;20074;-46
2023/06/21 07:32:47;;;;;;;22.05;17.33;;;21.00;99.90;;;;;;4964995;28;20039;-49
2023/06/21 07:35:14;;;;;;;22.02;18.33;;;21.10;99.90;;;;;;4954227;28;20082;-49
2023/06/21 07:37:42;;;;;;;20.33;17.80;;;21.10;99.90;;;;;;4954476;28;20772;-47
2023/06/21 07:40:08;;;;;;;19.65;17.52;;;21.10;99.90;;;;;;4954278;28;20043;-48
2023/06/21 07:42:34;;;;;;;19.60;16.08;;;21.10;99.90;;;;;;4952995;28;20052;-50
2023/06/21 07:45:00;;;;;;;19.00;16.30;;;21.20;99.90;;;;;;4954294;28;20470;-49
2023/06/21 07:47:25;;;;;;;19.23;15.23;;;21.20;99.90;;;;;;4954353;28;20035;-48
2023/06/21 07:49:51;;;;;;;18.90;14.77;;;21.20;99.90;;;;;;4954441;28;20598;-48
2023/06/21 07:52:17;;;;;;;19.33;15.98;;;21.30;99.90;;;;;;4954437;28;20082;-50
2023/06/21 07:54:47;;;;;;;18.38;15.93;;;21.40;99.90;;;;;;4959856;28;20121;-46
2023/06/21 07:57:14;;;;;;;18.45;15.45;;;21.30;99.90;;;;;;4963646;28;20099;-47
2023/06/21 07:59:39;;;;;;;18.38;15.07;;;21.40;99.90;;;;;;4966066;28;20097;-48
2023/06/21 08:02:05;;;;;;;17.23;14.38;;;21.30;99.90;;;;;;4953823;28;20432;-50
2023/06/21 08:04:31;;;;;;;16.13;13.50;;;21.40;99.90;;;;;;4953914;28;20047;-48
2023/06/21 08:06:57;;;;;;;15.90;13.23;;;21.40;99.90;;;;;;4953630;28;20035;-47
2023/06/21 08:09:22;;;;;;;20.70;14.70;;;21.40;99.90;;;;;;4936672;28;21310;-49
2023/06/21 08:11:48;;;;;;;15.25;12.48;;;21.60;99.90;;;;;;4920513;28;20094;-46
2023/06/21 08:14:14;;;;;;;16.15;12.23;;;21.60;99.90;;;;;;4953793;28;20047;-48
2023/06/21 08:16:39;;;;;;;16.67;13.20;;;21.70;99.90;;;;;;4953706;28;20127;-47
2023/06/21 08:19:05;;;;;;;15.38;12.15;;;21.70;99.90;;;;;;4953980;28;20110;-48
2023/06/21 08:21:31;;;;;;;14.65;11.55;;;21.80;99.90;;;;;;4957702;28;20406;-47
2023/06/21 08:23:57;;;;;;;15.30;13.40;;;21.80;99.90;;;;;;4973244;28;20033;-48
2023/06/21 08:26:22;;;;;;;16.63;13.38;;;21.80;99.90;;;;;;4972772;28;20077;-48
2023/06/21 08:28:48;;;;;;;16.73;12.07;;;21.70;99.90;;;;;;4956105;28;20042;-49
2023/06/21 08:31:14;;;;;;;17.80;12.95;;;21.70;99.90;;;;;;4966850;28;20074;-49
2023/06/21 08:33:39;;;;;;;15.35;12.43;;;21.80;99.90;;;;;;4972782;28;20042;-48
2023/06/21 08:36:08;;;;;;;17.90;12.68;;;21.70;99.90;;;;;;4972352;28;20117;-47
2023/06/21 08:38:34;;;;;;;14.43;11.60;;;21.90;99.90;;;;;;4967204;28;20130;-48
2023/06/21 08:41:04;;;;;;;14.23;11.15;;;21.90;99.90;;;;;;4972267;28;20133;-45
2023/06/21 08:43:31;;;;;;;13.82;11.52;;;22.00;99.90;;;;;;4936672;28;20047;-50
2023/06/21 08:45:57;;;;;;;12.43;10.35;;;22.00;99.90;;;;;;4953231;28;20079;-48
2023/06/21 08:48:25;;;;;;;16.00;11.30;;;22.00;99.90;;;;;;4936089;28;20043;-50
2023/06/21 08:50:50;;;;;;;12.70;10.25;;;22.10;99.90;;;;;;4961071;28;20050;-48
2023/06/21 08:53:28;;;;;;;11.77;9.45;;;22.30;99.90;;;;;;4972634;28;20054;-48
2023/06/21 08:55:56;;;;;;;12.63;9.85;;;22.30;99.90;;;;;;4972321;28;20057;-48
2023/06/21 08:58:24;;;;;;;12.02;9.55;;;22.40;99.90;;;;;;4972426;28;20074;-44
2023/06/21 09:00:53;;;;;;;13.00;9.05;;;22.40;99.90;;;;;;4971992;28;20117;-47
2023/06/21 09:03:27;;;;;;;11.27;8.63;;;22.50;99.90;;;;;;4972457;28;20035;-48
2023/06/21 09:06:00;;;;;;;10.45;7.90;;;22.60;99.90;;;;;;4971814;28;20168;-46
2023/06/21 09:08:26;;;;;;;11.32;8.07;;;22.50;99.90;;;;;;4936853;28;20035;-47
2023/06/21 09:10:52;;;;;;;10.05;7.88;;;22.60;99.90;;;;;;4952894;28;20035;-47
2023/06/21 09:13:19;;;;;;;9.90;7.75;;;22.60;99.90;;;;;;4952435;28;20426;-46
2023/06/21 09:15:47;;;;;;;10.63;7.47;;;22.60;99.90;;;;;;4935567;28;20059;-47
2023/06/21 09:18:13;;;;;;;8.80;6.28;;;22.70;99.90;;;;;;4955697;28;20070;-47
2023/06/21 09:20:41;;;;;;;10.30;7.20;;;22.70;99.90;;;;;;4958124;28;20077;-50
2023/06/21 09:23:08;;;;;;;12.43;8.50;;;22.90;99.90;;;;;;4971994;28;20038;-50
2023/06/21 09:25:34;;;;;;;12.00;9.32;;;23.00;99.90;;;;;;4972406;28;20043;-46
2023/06/21 09:28:00;;;;;;;8.73;4.90;;;23.00;99.90;;;;;;4971743;28;20042;-50
2023/06/21 09:30:25;;;;;;;8.35;5.93;;;23.00;99.90;;;;;;4971872;28;20065;-48
2023/06/21 09:32:51;;;;;;;8.18;5.07;;;22.90;99.90;;;;;;4971902;28;20030;-50
2023/06/21 09:35:17;;;;;;;10.98;6.25;;;23.00;99.90;;;;;;4935282;28;20449;-45
2023/06/21 09:37:43;;;;;;;9.95;7.93;;;23.10;99.90;;;;;;4952755;28;20147;-46
2023/06/21 09:40:09;;;;;;;8.30;6.30;;;23.20;99.90;;;;;;4952584;28;20039;-50
2023/06/21 09:42:37;;;;;;;8.90;7.18;;;23.40;99.90;;;;;;4935492;28;20497;-49
2023/06/21 09:45:17;;;;;;;8.82;6.40;;;23.60;99.90;;;;;;4952463;28;20110;-47
2023/06/21 09:47:43;;;;;;;6.47;4.88;;;23.50;99.90;;;;;;4952656;28;20046;-50
2023/06/21 09:50:10;;;;;;;8.10;4.97;;;23.40;99.90;;;;;;4962875;28;20453;-47
2023/06/21 09:52:36;;;;;;;9.73;5.65;;;23.30;99.90;;;;;;4971873;28;20041;-48
2023/06/21 09:55:05;;;;;;;10.77;5.50;;;23.30;99.90;;;;;;4971618;28;20043;-47
2023/06/21 09:57:32;;;;;;;8.77;6.00;;;23.30;99.90;;;;;;4966714;28;20130;-49
2023/06/21 09:59:59;;;;;;;8.93;6.40;;;23.60;99.90;;;;;;4952679;28;20098;-47
2023/06/21 10:02:26;;;;;;;10.00;7.72;;;23.90;99.90;;;;;;4951855;28;20122;-50
2023/06/21 10:04:54;;;;;;;10.52;8.73;;;24.10;99.90;;;;;;4952796;28;20046;-45
2023/06/21 10:07:21;;;;;;;10.35;7.38;;;24.30;99.90;;;;;;4964703;28;20038;-47
2023/06/21 10:09:48;;;;;;;12.68;8.13;;;24.40;99.90;;;;;;4961871;28;20035;-46
2023/06/21 10:12:15;;;;;;;10.05;6.90;;;24.50;99.90;;;;;;4952055;28;20078;-48
2023/06/21 10:14:41;;;;;;;12.60;7.78;;;24.40;99.90;;;;;;4952644;28;20553;-49
2023/06/21 10:17:08;;;;;;;10.05;7.35;;;24.20;99.90;;;;;;4952172;28;20348;-50
2023/06/21 10:19:35;;;;;;;9.35;7.13;;;24.10;99.90;;;;;;4952266;28;20054;-45
2023/06/21 10:22:08;;;;;;;10.60;7.53;;;24.00;99.90;;;;;;4952103;28;20047;-47
2023/06/21 10:24:47;;;;;;;8.90;6.80;;;24.00;99.90;;;;;;4935757;28;20090;-49
2023/06/21 10:27:14;;;;;;;10.52;7.32;;;23.90;99.90;;;;;;4955781;28;20027;-44
2023/06/21 10:29:42;;;;;;;9.13;7.68;;;23.90;99.90;;;;;;4955846;28;20067;-50
2023/06/21 10:32:08;;;;;;;12.55;7.88;;;23.90;99.90;;;;;;4965609;28;20042;-48
2023/06/21 10:35:09;;;;;;;10.18;7.82;;;23.90;99.90;;;;;;4975297;28;20086;-48
2023/06/21 10:37:48;;;;;;;8.50;6.38;;;24.00;99.90;;;;;;4963961;28;20050;-47
2023/06/21 10:40:14;;;;;;;8.43;7.20;;;24.10;99.90;;;;;;4970988;28;20039;-46
2023/06/21 10:42:44;;;;;;;8.15;7.10;;;24.30;99.90;;;;;;4955681;28;20126;-49
2023/06/21 10:45:10;;;;;;;10.93;6.63;;;24.40;99.90;;;;;;4963525;28;20081;-48
2023/06/21 10:47:38;;;;;;;10.70;7.30;;;24.70;99.90;;;;;;4970315;28;20043;-47
2023/06/21 10:50:05;;;;;;;8.93;7.53;;;24.90;99.90;;;;;;4966254;28;20034;-49
2023/06/21 10:52:31;;;;;;;9.20;6.97;;;25.00;99.90;;;;;;4955267;28;20122;-51
2023/06/21 10:54:57;;;;;;;6.80;5.60;;;25.10;99.90;;;;;;4961083;28;20115;-47
2023/06/21 10:57:28;;;;;;;7.55;5.00;;;25.20;99.90;;;;;;4954862;28;20050;-47
2023/06/21 10:59:56;;;;;;;7.85;5.55;;;25.30;99.90;;;;;;4970299;28;20047;-52
2023/06/21 11:02:25;;;;;;;8.18;6.45;;;25.30;99.90;;;;;;4974337;28;20042;-48
2023/06/21 11:05:17;;;;;;;10.05;8.18;;;25.10;99.90;;;;;;4974745;28;20057;-52
2023/06/21 11:07:56;;;;;;;10.30;7.20;;;25.10;99.90;;;;;;4969969;28;20119;-45
2023/06/21 11:10:43;;;;;;;11.25;8.70;;;25.20;99.90;;;;;;4955182;28;20098;-51
2023/06/21 11:13:10;;;;;;;10.35;8.32;;;25.40;99.90;;;;;;4938168;28;20062;-50
2023/06/21 11:15:40;;;;;;;9.35;7.95;;;25.50;99.90;;;;;;4954877;28;20035;-48
2023/06/21 11:18:10;;;;;;;11.50;8.88;;;25.70;99.90;;;;;;4963161;28;20125;-51
2023/06/21 11:20:50;;;;;;;10.32;8.23;;;25.80;99.90;;;;;;4974216;28;20489;-49
2023/06/21 11:23:17;;;;;;;8.90;7.07;;;26.00;99.90;;;;;;4938405;28;20039;-50
2023/06/21 11:25:50;;;;;;;9.73;6.70;;;26.10;99.90;;;;;;4955410;28;20517;-50
2023/06/21 11:28:26;;;;;;;10.85;7.07;;;26.20;99.90;;;;;;4954862;28;20039;-49
2023/06/21 11:31:01;;;;;;;7.30;4.85;;;26.30;99.90;;;;;;4961634;28;20988;-48
2023/06/21 11:33:29;;;;;;;7.43;4.45;;;26.40;99.90;;;;;;4954815;28;20126;-50
2023/06/21 11:36:03;;;;;;;9.63;5.13;;;26.50;99.90;;;;;;4953995;28;20506;-47
2023/06/21 11:38:29;;;;;;;;;;;26.30;99.90;;;;;;4955194;28;20050;-50
2023/06/21 11:40:56;;;;;;;8.32;5.53;;;26.00;99.90;;;;;;4954341;28;19923;-48
2023/06/21 11:43:22;;;;;;;6.22;5.00;;;26.10;99.90;;;;;;4954316;28;20039;-47
2023/06/21 11:45:56;;;;;;;7.10;4.38;;;26.30;99.90;;;;;;4954621;28;20055;-51
2023/06/21 11:48:24;;;;;;;6.90;3.83;;;26.40;99.90;;;;;;4954790;28;20066;-48
2023/06/21 11:50:52;;;;;;;12.88;6.65;;;26.30;99.90;;;;;;4954109;28;20053;-48
2023/06/21 11:53:29;;;;;;;16.85;7.65;;;26.30;99.90;;;;;;4970884;28;20398;-50
2023/06/21 11:55:57;;;;;;;8.23;4.75;;;26.20;99.90;;;;;;4956178;28;20054;-47
2023/06/21 11:58:25;;;;;;;18.60;8.52;;;26.20;99.90;;;;;;4959215;28;20125;-50
2023/06/21 12:00:52;;;;;;;11.73;5.10;;;26.40;99.90;;;;;;4973749;28;20106;-49
2023/06/21 12:03:21;;;;;;;6.78;3.42;;;26.50;99.90;;;;;;4960161;28;20042;-52
2023/06/21 12:05:52;;;;;;;5.97;3.30;;;26.80;99.90;;;;;;4953901;28;20043;-51
2023/06/21 12:08:19;;;;;;;5.75;3.20;;;27.10;99.90;;;;;;4936665;28;20118;-51
2023/06/21 12:10:46;;;;;;;6.70;3.53;;;27.20;99.90;;;;;;4973539;28;20056;-48
2023/06/21 12:13:13;;;;;;;5.93;3.28;;;27.20;99.90;;;;;;4967962;28;20045;-47
2023/06/21 12:16:05;;;;;;;4.53;3.22;;;27.20;99.90;;;;;;4954267;28;20382;-45
2023/06/21 12:18:34;;;;;;;5.72;3.03;;;27.00;99.90;;;;;;4936333;28;20473;-50
2023/06/21 12:21:01;;;;;;;5.30;3.10;;;26.70;99.90;;;;;;4953769;28;20122;-48
2023/06/21 12:23:31;;;;;;;4.88;3.05;;;26.60;99.90;;;;;;4970088;28;20039;-47
2023/06/21 12:26:04;;;;;;;8.57;3.28;;;26.60;99.90;;;;;;4961226;28;20035;-46
2023/06/21 12:28:32;;;;;;;5.35;2.83;;;26.80;99.90;;;;;;4956022;28;20233;-49
2023/06/21 12:31:00;;;;;;;5.95;3.38;;;26.90;99.90;;;;;;4956150;28;20039;-47
2023/06/21 12:33:32;;;;;;;6.22;3.55;;;27.10;99.90;;;;;;4953519;28;20043;-49
2023/06/21 12:36:18;;;;;;;7.40;3.20;;;27.30;99.90;;;;;;4938147;28;20523;-49
2023/06/21 12:39:01;;;;;;;5.85;2.92;;;27.40;99.90;;;;;;4972944;28;20118;-49